Accueil
METAR-TAF:

METAR-TAF

Aéroports :

Aéroport de Seletar

Singapour, Singapour

latitude: 01-25-08N, longitude: 103-51-57E, altitude: 11 m

Observation

Le bulletin a été fait il y a 52 minutes, à 01:00 UTC
Vent 9 kt de nord/nord-est
Température 27°C
Humidité 84%
Pression 1014 hPa
Visibilité 10 km ou plus
Nuages épars à une hauteur de 1600 ft
Nuages fragmentés à une hauteur de 30000 ft

METAR: WSSL 220100Z 02009KT 9999 SCT016 BKN300 27/24 Q1014

Heure: 09:52 (01:52 UTC)

Prévision

Le bulletin a été fait il y a 2 heures et 52 minutes, à 23:00 UTC
Prévision valable du 22 à 00 UTC au 23 à 06 UTC
Vent 13 kt de nord/nord-est
Visibilité 10 km ou plus
Quelques nuages à une hauteur de 1500 ft
Nuages épars à une hauteur de 2000 ft
Temporairement
du 22 à 04 UTC au 22 à 10 UTC
Vent 15 kt de nord-est avec des rafales jusqu'à 25 kt

TAF: WSSL 212300Z 2200/2306 03013KT 9999 FEW015 SCT020 TEMPO 2204/2210 04015G25KT

Observations et prévisions météorologiques de plus de 4000 aéroports (messages METAR et TAF).

Les stations disponibles sont représentées par des disques jaunes et rouges sur la carte.

Passer la souris dessus pour voir le nom de la station.

Cliquer dessus pour voir les observations et prévisions météorologiques.

Pour changer de carte: cliquez sur les boutons verts avec une croix noire pour zoomer, sur le bouton vert avec un tiret pour effectuer un zoom arrière, ou sur les flèches vertes pour les cartes adjacentes.


METAR-TAF: